< Typhoon 199521 1995 Season Typhoon 199523 >
Typhoon 199522 (BRIAN)
General InformationTrack Information on Google MapsDetailed Wind InformationList of All Images || Disaster Info.ResourceGoogle EarthGE AnimationAtom FeedGeoJSON
Detalied Best Track (Time Zone = UTC)
Year Month Day Hour Lat. Long. Pressure (hPa) Wind (kt) Class Image Chart
1995 10 31 00 16.0 163.0 1010 0 2 Image Chart
1995 10 31 06 16.4 161.4 1008 0 2 Image Chart
1995 10 31 12 17.5 160.0 1008 0 2 Image Chart
1995 10 31 18 18.8 158.8 1008 0 2 Image Chart
1995 11 1 00 19.7 157.2 1008 0 2 Image Chart
1995 11 1 06 20.0 155.4 1008 0 2 Image Chart
1995 11 1 12 20.7 153.7 1008 0 2 Image Chart
1995 11 1 18 21.7 152.4 1004 0 2 Image Chart
1995 11 2 00 23.0 151.3 1002 0 2 Image Chart
1995 11 2 06 24.3 151.1 1000 35 3 Image Chart
1995 11 2 12 25.6 151.8 1000 35 3 Image Chart
1995 11 2 18 27.0 153.0 998 40 3 Image Chart
1995 11 3 00 28.6 155.0 998 40 3 Image Chart
1995 11 3 06 29.6 157.5 1000 35 3 Image Chart
1995 11 3 12 30.5 160.5 1000 35 3 Image Chart
1995 11 3 18 32.0 163.0 1002 35 3 Image Chart
1995 11 4 00 33.5 165.0 1004 0 6 Image Chart
1995 11 4 06 36.0 167.0 1004 0 6 Image Chart
1995 11 4 12 39.0 169.5 1004 0 6 Image Chart
1995 11 4 18 42.0 172.5 1004 0 6 Image Chart
1995 11 5 00 44.0 175.0 1004 0 6 Image Chart
1995 11 5 06 46.0 178.0 1002 0 6 Image Chart
1995 11 5 12 47.5 180.5 1002 0 6 Image Chart
Japan Meteorological Agency Best Track Data | Correction Date : 1996-01-19
< Typhoon 199521 1995 Season Typhoon 199523 >

Help